sensor_id;sensor_type;location;lat;lon;timestamp;P1;durP1;ratioP1;P2;durP2;ratioP2
14892;SDS011;7538;53.626;9.906;2023-03-05T00:01:41;5.43;;;1.47;;
14892;SDS011;7538;53.626;9.906;2023-03-05T00:04:09;3.33;;;1.10;;
14892;SDS011;7538;53.626;9.906;2023-03-05T00:06:38;5.80;;;1.50;;
14892;SDS011;7538;53.626;9.906;2023-03-05T00:09:05;5.20;;;1.73;;
14892;SDS011;7538;53.626;9.906;2023-03-05T00:11:32;8.20;;;1.80;;
14892;SDS011;7538;53.626;9.906;2023-03-05T00:14:00;3.33;;;1.40;;
14892;SDS011;7538;53.626;9.906;2023-03-05T00:16:30;7.13;;;1.70;;
14892;SDS011;7538;53.626;9.906;2023-03-05T00:18:57;4.17;;;1.53;;
14892;SDS011;7538;53.626;9.906;2023-03-05T00:21:26;5.47;;;1.20;;
14892;SDS011;7538;53.626;9.906;2023-03-05T00:23:54;6.43;;;1.40;;
14892;SDS011;7538;53.626;9.906;2023-03-05T00:26:22;6.07;;;1.57;;
14892;SDS011;7538;53.626;9.906;2023-03-05T00:28:51;4.57;;;1.43;;
14892;SDS011;7538;53.626;9.906;2023-03-05T00:31:20;3.80;;;1.37;;
14892;SDS011;7538;53.626;9.906;2023-03-05T00:33:51;3.07;;;1.17;;
14892;SDS011;7538;53.626;9.906;2023-03-05T00:36:19;4.93;;;1.40;;
14892;SDS011;7538;53.626;9.906;2023-03-05T00:38:46;5.63;;;1.43;;
14892;SDS011;7538;53.626;9.906;2023-03-05T00:41:13;7.40;;;1.77;;
14892;SDS011;7538;53.626;9.906;2023-03-05T00:43:40;5.50;;;1.80;;
14892;SDS011;7538;53.626;9.906;2023-03-05T00:46:07;6.13;;;1.63;;
14892;SDS011;7538;53.626;9.906;2023-03-05T00:48:34;5.27;;;1.40;;
14892;SDS011;7538;53.626;9.906;2023-03-05T00:51:02;3.90;;;1.20;;
14892;SDS011;7538;53.626;9.906;2023-03-05T00:53:29;6.27;;;1.97;;
14892;SDS011;7538;53.626;9.906;2023-03-05T00:55:56;6.47;;;1.40;;
14892;SDS011;7538;53.626;9.906;2023-03-05T00:58:23;7.20;;;1.90;;
14892;SDS011;7538;53.626;9.906;2023-03-05T01:00:50;4.63;;;1.23;;
14892;SDS011;7538;53.626;9.906;2023-03-05T01:03:16;4.23;;;1.23;;
14892;SDS011;7538;53.626;9.906;2023-03-05T01:05:44;4.63;;;1.57;;
14892;SDS011;7538;53.626;9.906;2023-03-05T01:08:12;6.73;;;1.80;;
14892;SDS011;7538;53.626;9.906;2023-03-05T01:10:39;6.50;;;1.57;;
14892;SDS011;7538;53.626;9.906;2023-03-05T01:13:06;4.70;;;1.27;;
14892;SDS011;7538;53.626;9.906;2023-03-05T01:15:33;4.53;;;2.23;;
14892;SDS011;7538;53.626;9.906;2023-03-05T01:18:00;7.80;;;1.70;;
14892;SDS011;7538;53.626;9.906;2023-03-05T01:20:27;7.40;;;1.67;;
14892;SDS011;7538;53.626;9.906;2023-03-05T01:22:53;4.63;;;1.30;;
14892;SDS011;7538;53.626;9.906;2023-03-05T01:25:24;5.43;;;1.50;;
14892;SDS011;7538;53.626;9.906;2023-03-05T01:27:51;5.47;;;1.70;;
14892;SDS011;7538;53.626;9.906;2023-03-05T01:30:18;7.53;;;1.70;;
14892;SDS011;7538;53.626;9.906;2023-03-05T01:32:45;4.67;;;1.70;;
14892;SDS011;7538;53.626;9.906;2023-03-05T01:35:14;6.70;;;1.83;;
14892;SDS011;7538;53.626;9.906;2023-03-05T01:37:42;6.77;;;1.73;;
14892;SDS011;7538;53.626;9.906;2023-03-05T01:40:10;5.10;;;1.93;;
14892;SDS011;7538;53.626;9.906;2023-03-05T01:42:39;7.67;;;2.10;;
14892;SDS011;7538;53.626;9.906;2023-03-05T01:45:11;7.37;;;2.27;;
14892;SDS011;7538;53.626;9.906;2023-03-05T01:47:40;8.90;;;2.80;;
14892;SDS011;7538;53.626;9.906;2023-03-05T01:50:08;5.83;;;2.50;;
14892;SDS011;7538;53.626;9.906;2023-03-05T01:52:38;8.00;;;2.30;;
14892;SDS011;7538;53.626;9.906;2023-03-05T01:55:08;5.23;;;2.10;;
14892;SDS011;7538;53.626;9.906;2023-03-05T01:57:41;4.77;;;1.67;;
14892;SDS011;7538;53.626;9.906;2023-03-05T02:00:10;4.77;;;1.47;;
14892;SDS011;7538;53.626;9.906;2023-03-05T02:02:39;6.33;;;1.60;;
14892;SDS011;7538;53.626;9.906;2023-03-05T02:05:07;4.80;;;1.87;;
14892;SDS011;7538;53.626;9.906;2023-03-05T02:07:38;4.87;;;1.50;;
14892;SDS011;7538;53.626;9.906;2023-03-05T02:10:13;5.13;;;2.23;;
14892;SDS011;7538;53.626;9.906;2023-03-05T02:12:42;3.97;;;1.70;;
14892;SDS011;7538;53.626;9.906;2023-03-05T02:15:09;2.43;;;1.30;;
14892;SDS011;7538;53.626;9.906;2023-03-05T02:17:37;1.80;;;1.23;;
14892;SDS011;7538;53.626;9.906;2023-03-05T02:20:05;5.70;;;1.50;;
14892;SDS011;7538;53.626;9.906;2023-03-05T02:22:35;2.53;;;1.33;;
14892;SDS011;7538;53.626;9.906;2023-03-05T02:25:10;2.40;;;1.20;;
14892;SDS011;7538;53.626;9.906;2023-03-05T02:27:44;6.03;;;1.77;;
14892;SDS011;7538;53.626;9.906;2023-03-05T02:30:16;5.00;;;1.40;;
14892;SDS011;7538;53.626;9.906;2023-03-05T02:32:43;6.80;;;1.60;;
14892;SDS011;7538;53.626;9.906;2023-03-05T02:35:10;4.40;;;1.57;;
14892;SDS011;7538;53.626;9.906;2023-03-05T02:37:38;2.03;;;1.20;;
14892;SDS011;7538;53.626;9.906;2023-03-05T02:40:06;7.27;;;1.60;;
14892;SDS011;7538;53.626;9.906;2023-03-05T02:42:34;3.93;;;1.57;;
14892;SDS011;7538;53.626;9.906;2023-03-05T02:45:01;3.00;;;1.60;;
14892;SDS011;7538;53.626;9.906;2023-03-05T02:47:28;3.97;;;1.30;;
14892;SDS011;7538;53.626;9.906;2023-03-05T02:49:55;2.80;;;1.30;;
14892;SDS011;7538;53.626;9.906;2023-03-05T02:52:22;4.70;;;1.53;;
14892;SDS011;7538;53.626;9.906;2023-03-05T02:54:50;2.03;;;1.43;;
14892;SDS011;7538;53.626;9.906;2023-03-05T02:57:18;6.67;;;1.70;;
14892;SDS011;7538;53.626;9.906;2023-03-05T02:59:45;2.30;;;1.43;;
14892;SDS011;7538;53.626;9.906;2023-03-05T03:02:12;4.10;;;1.67;;
14892;SDS011;7538;53.626;9.906;2023-03-05T03:04:41;5.37;;;2.03;;
14892;SDS011;7538;53.626;9.906;2023-03-05T03:07:09;5.03;;;1.93;;
14892;SDS011;7538;53.626;9.906;2023-03-05T03:09:36;1.40;;;1.27;;
14892;SDS011;7538;53.626;9.906;2023-03-05T03:12:05;3.20;;;1.43;;
14892;SDS011;7538;53.626;9.906;2023-03-05T03:17:03;5.83;;;1.70;;
14892;SDS011;7538;53.626;9.906;2023-03-05T03:19:30;5.03;;;1.63;;
14892;SDS011;7538;53.626;9.906;2023-03-05T03:21:57;3.40;;;1.97;;
14892;SDS011;7538;53.626;9.906;2023-03-05T03:24:23;5.30;;;1.83;;
14892;SDS011;7538;53.626;9.906;2023-03-05T03:26:50;1.90;;;1.70;;
14892;SDS011;7538;53.626;9.906;2023-03-05T03:29:18;3.17;;;1.77;;
14892;SDS011;7538;53.626;9.906;2023-03-05T03:31:45;4.60;;;2.40;;
14892;SDS011;7538;53.626;9.906;2023-03-05T03:34:12;3.37;;;2.40;;
14892;SDS011;7538;53.626;9.906;2023-03-05T03:36:39;4.37;;;2.27;;
14892;SDS011;7538;53.626;9.906;2023-03-05T03:39:06;4.90;;;2.33;;
14892;SDS011;7538;53.626;9.906;2023-03-05T03:41:34;5.20;;;2.37;;
14892;SDS011;7538;53.626;9.906;2023-03-05T03:44:01;5.60;;;2.20;;
14892;SDS011;7538;53.626;9.906;2023-03-05T03:46:32;2.80;;;2.10;;
14892;SDS011;7538;53.626;9.906;2023-03-05T03:48:59;5.17;;;2.57;;
14892;SDS011;7538;53.626;9.906;2023-03-05T03:51:26;4.73;;;2.83;;
14892;SDS011;7538;53.626;9.906;2023-03-05T03:53:53;5.20;;;3.13;;
14892;SDS011;7538;53.626;9.906;2023-03-05T03:56:20;7.83;;;2.90;;
14892;SDS011;7538;53.626;9.906;2023-03-05T03:58:48;4.87;;;2.90;;
14892;SDS011;7538;53.626;9.906;2023-03-05T04:01:15;9.30;;;3.40;;
14892;SDS011;7538;53.626;9.906;2023-03-05T04:03:43;5.60;;;3.33;;
14892;SDS011;7538;53.626;9.906;2023-03-05T04:06:10;7.20;;;3.87;;
14892;SDS011;7538;53.626;9.906;2023-03-05T04:08:37;7.40;;;3.70;;
14892;SDS011;7538;53.626;9.906;2023-03-05T04:11:04;6.87;;;3.90;;
14892;SDS011;7538;53.626;9.906;2023-03-05T04:13:31;7.60;;;4.17;;
14892;SDS011;7538;53.626;9.906;2023-03-05T04:15:58;5.47;;;4.20;;
14892;SDS011;7538;53.626;9.906;2023-03-05T04:18:25;6.90;;;4.70;;
14892;SDS011;7538;53.626;9.906;2023-03-05T04:20:53;5.07;;;4.57;;
14892;SDS011;7538;53.626;9.906;2023-03-05T04:23:20;8.57;;;3.93;;
14892;SDS011;7538;53.626;9.906;2023-03-05T04:25:47;7.20;;;4.00;;
14892;SDS011;7538;53.626;9.906;2023-03-05T04:28:13;6.77;;;3.90;;
14892;SDS011;7538;53.626;9.906;2023-03-05T04:30:41;5.63;;;3.80;;
14892;SDS011;7538;53.626;9.906;2023-03-05T04:33:08;5.07;;;3.20;;
14892;SDS011;7538;53.626;9.906;2023-03-05T04:35:35;5.50;;;3.53;;
14892;SDS011;7538;53.626;9.906;2023-03-05T04:38:04;4.77;;;2.60;;
14892;SDS011;7538;53.626;9.906;2023-03-05T04:40:30;7.13;;;3.03;;
14892;SDS011;7538;53.626;9.906;2023-03-05T04:42:58;7.67;;;2.30;;
14892;SDS011;7538;53.626;9.906;2023-03-05T04:45:24;7.30;;;2.87;;
14892;SDS011;7538;53.626;9.906;2023-03-05T04:47:51;3.93;;;2.17;;
14892;SDS011;7538;53.626;9.906;2023-03-05T04:50:18;4.33;;;2.40;;
14892;SDS011;7538;53.626;9.906;2023-03-05T04:52:45;3.57;;;2.37;;
14892;SDS011;7538;53.626;9.906;2023-03-05T04:55:14;5.93;;;2.30;;
14892;SDS011;7538;53.626;9.906;2023-03-05T04:57:41;4.83;;;2.37;;
14892;SDS011;7538;53.626;9.906;2023-03-05T05:00:09;4.67;;;2.50;;
14892;SDS011;7538;53.626;9.906;2023-03-05T05:02:38;6.20;;;2.37;;
14892;SDS011;7538;53.626;9.906;2023-03-05T05:05:06;2.80;;;1.67;;
14892;SDS011;7538;53.626;9.906;2023-03-05T05:07:33;2.57;;;1.80;;
14892;SDS011;7538;53.626;9.906;2023-03-05T05:10:00;6.17;;;1.90;;
14892;SDS011;7538;53.626;9.906;2023-03-05T05:12:28;2.93;;;1.47;;
14892;SDS011;7538;53.626;9.906;2023-03-05T05:14:55;5.63;;;1.93;;
14892;SDS011;7538;53.626;9.906;2023-03-05T05:17:22;2.73;;;1.70;;
14892;SDS011;7538;53.626;9.906;2023-03-05T05:19:49;5.53;;;2.07;;
14892;SDS011;7538;53.626;9.906;2023-03-05T05:22:16;5.47;;;1.80;;
14892;SDS011;7538;53.626;9.906;2023-03-05T05:24:43;3.73;;;1.60;;
14892;SDS011;7538;53.626;9.906;2023-03-05T05:27:10;4.80;;;2.00;;
14892;SDS011;7538;53.626;9.906;2023-03-05T05:29:38;5.23;;;1.90;;
14892;SDS011;7538;53.626;9.906;2023-03-05T05:32:05;6.97;;;2.20;;
14892;SDS011;7538;53.626;9.906;2023-03-05T05:34:32;5.80;;;1.50;;
14892;SDS011;7538;53.626;9.906;2023-03-05T05:36:59;7.07;;;1.60;;
14892;SDS011;7538;53.626;9.906;2023-03-05T05:39:25;3.87;;;1.80;;
14892;SDS011;7538;53.626;9.906;2023-03-05T05:41:52;4.23;;;1.50;;
14892;SDS011;7538;53.626;9.906;2023-03-05T05:44:19;3.23;;;1.50;;
14892;SDS011;7538;53.626;9.906;2023-03-05T05:46:47;4.97;;;1.20;;
14892;SDS011;7538;53.626;9.906;2023-03-05T05:49:14;1.73;;;0.97;;
14892;SDS011;7538;53.626;9.906;2023-03-05T05:51:41;4.97;;;1.00;;
14892;SDS011;7538;53.626;9.906;2023-03-05T05:54:08;3.63;;;1.30;;
14892;SDS011;7538;53.626;9.906;2023-03-05T05:56:37;2.00;;;0.93;;
14892;SDS011;7538;53.626;9.906;2023-03-05T05:59:04;4.37;;;1.33;;
14892;SDS011;7538;53.626;9.906;2023-03-05T06:01:32;3.93;;;0.90;;
14892;SDS011;7538;53.626;9.906;2023-03-05T06:04:00;5.40;;;0.90;;
14892;SDS011;7538;53.626;9.906;2023-03-05T06:06:27;3.27;;;1.27;;
14892;SDS011;7538;53.626;9.906;2023-03-05T06:08:55;4.13;;;1.13;;
14892;SDS011;7538;53.626;9.906;2023-03-05T06:11:22;5.57;;;1.10;;
14892;SDS011;7538;53.626;9.906;2023-03-05T06:13:49;2.77;;;0.90;;
14892;SDS011;7538;53.626;9.906;2023-03-05T06:16:17;2.80;;;1.07;;
14892;SDS011;7538;53.626;9.906;2023-03-05T06:18:46;4.07;;;1.20;;
14892;SDS011;7538;53.626;9.906;2023-03-05T06:21:15;3.67;;;0.90;;
14892;SDS011;7538;53.626;9.906;2023-03-05T06:23:43;6.07;;;1.20;;
14892;SDS011;7538;53.626;9.906;2023-03-05T06:26:11;2.43;;;0.90;;
14892;SDS011;7538;53.626;9.906;2023-03-05T06:28:39;2.70;;;0.97;;
14892;SDS011;7538;53.626;9.906;2023-03-05T06:31:07;3.90;;;0.97;;
14892;SDS011;7538;53.626;9.906;2023-03-05T06:33:35;1.77;;;0.90;;
14892;SDS011;7538;53.626;9.906;2023-03-05T06:36:03;3.43;;;0.90;;
14892;SDS011;7538;53.626;9.906;2023-03-05T06:38:33;2.27;;;0.90;;
14892;SDS011;7538;53.626;9.906;2023-03-05T06:41:00;5.33;;;1.00;;
14892;SDS011;7538;53.626;9.906;2023-03-05T06:43:29;2.07;;;0.90;;
14892;SDS011;7538;53.626;9.906;2023-03-05T06:46:00;2.50;;;0.80;;
14892;SDS011;7538;53.626;9.906;2023-03-05T06:48:28;1.77;;;0.60;;
14892;SDS011;7538;53.626;9.906;2023-03-05T06:50:55;5.63;;;1.20;;
14892;SDS011;7538;53.626;9.906;2023-03-05T06:53:22;2.33;;;0.80;;
14892;SDS011;7538;53.626;9.906;2023-03-05T06:55:50;1.43;;;0.77;;
14892;SDS011;7538;53.626;9.906;2023-03-05T06:58:17;2.00;;;0.77;;
14892;SDS011;7538;53.626;9.906;2023-03-05T07:00:44;2.87;;;0.80;;
14892;SDS011;7538;53.626;9.906;2023-03-05T07:03:11;4.77;;;1.10;;
14892;SDS011;7538;53.626;9.906;2023-03-05T07:05:38;5.40;;;1.00;;
14892;SDS011;7538;53.626;9.906;2023-03-05T07:08:05;4.70;;;1.10;;
14892;SDS011;7538;53.626;9.906;2023-03-05T07:10:32;5.70;;;1.20;;
14892;SDS011;7538;53.626;9.906;2023-03-05T07:13:05;2.63;;;1.07;;
14892;SDS011;7538;53.626;9.906;2023-03-05T07:15:32;4.20;;;1.07;;
14892;SDS011;7538;53.626;9.906;2023-03-05T07:17:59;1.40;;;0.80;;
14892;SDS011;7538;53.626;9.906;2023-03-05T07:20:25;2.97;;;0.80;;
14892;SDS011;7538;53.626;9.906;2023-03-05T07:22:52;2.60;;;0.70;;
14892;SDS011;7538;53.626;9.906;2023-03-05T07:25:19;2.80;;;1.20;;
14892;SDS011;7538;53.626;9.906;2023-03-05T07:27:48;1.50;;;0.87;;
14892;SDS011;7538;53.626;9.906;2023-03-05T07:30:17;3.40;;;1.17;;
14892;SDS011;7538;53.626;9.906;2023-03-05T07:32:44;4.23;;;1.30;;
14892;SDS011;7538;53.626;9.906;2023-03-05T07:35:11;2.60;;;1.20;;
14892;SDS011;7538;53.626;9.906;2023-03-05T07:37:38;3.00;;;1.00;;
14892;SDS011;7538;53.626;9.906;2023-03-05T07:40:05;5.37;;;1.20;;
14892;SDS011;7538;53.626;9.906;2023-03-05T07:42:33;3.10;;;1.60;;
14892;SDS011;7538;53.626;9.906;2023-03-05T07:45:00;2.77;;;1.00;;
14892;SDS011;7538;53.626;9.906;2023-03-05T07:47:28;1.97;;;1.07;;
14892;SDS011;7538;53.626;9.906;2023-03-05T07:49:55;3.00;;;1.20;;
14892;SDS011;7538;53.626;9.906;2023-03-05T07:52:22;3.53;;;1.00;;
14892;SDS011;7538;53.626;9.906;2023-03-05T07:54:49;4.30;;;1.50;;
14892;SDS011;7538;53.626;9.906;2023-03-05T07:57:15;3.23;;;1.40;;
14892;SDS011;7538;53.626;9.906;2023-03-05T07:59:42;5.00;;;1.50;;
14892;SDS011;7538;53.626;9.906;2023-03-05T08:02:09;3.20;;;1.00;;
14892;SDS011;7538;53.626;9.906;2023-03-05T08:04:38;5.27;;;1.67;;
14892;SDS011;7538;53.626;9.906;2023-03-05T08:07:07;3.10;;;1.40;;
14892;SDS011;7538;53.626;9.906;2023-03-05T08:09:34;3.87;;;1.20;;
14892;SDS011;7538;53.626;9.906;2023-03-05T08:12:00;3.03;;;1.33;;
14892;SDS011;7538;53.626;9.906;2023-03-05T08:14:27;3.53;;;1.30;;
14892;SDS011;7538;53.626;9.906;2023-03-05T08:16:54;6.50;;;1.67;;
14892;SDS011;7538;53.626;9.906;2023-03-05T08:19:21;3.53;;;1.10;;
14892;SDS011;7538;53.626;9.906;2023-03-05T08:21:49;3.60;;;1.60;;
14892;SDS011;7538;53.626;9.906;2023-03-05T08:24:15;3.77;;;1.40;;
14892;SDS011;7538;53.626;9.906;2023-03-05T08:26:42;4.87;;;1.27;;
14892;SDS011;7538;53.626;9.906;2023-03-05T08:29:09;3.90;;;1.60;;
14892;SDS011;7538;53.626;9.906;2023-03-05T08:31:36;3.53;;;1.37;;
14892;SDS011;7538;53.626;9.906;2023-03-05T08:34:03;3.30;;;1.50;;
14892;SDS011;7538;53.626;9.906;2023-03-05T08:36:31;4.77;;;1.70;;
14892;SDS011;7538;53.626;9.906;2023-03-05T08:39:00;2.95;;;1.20;;
14892;SDS011;7538;53.626;9.906;2023-03-05T08:41:27;3.87;;;0.87;;
14892;SDS011;7538;53.626;9.906;2023-03-05T08:43:54;5.57;;;1.50;;
14892;SDS011;7538;53.626;9.906;2023-03-05T08:46:21;2.92;;;1.27;;
14892;SDS011;7538;53.626;9.906;2023-03-05T08:48:48;2.78;;;1.30;;
14892;SDS011;7538;53.626;9.906;2023-03-05T08:51:17;2.67;;;1.25;;
14892;SDS011;7538;53.626;9.906;2023-03-05T08:53:45;3.55;;;1.42;;
14892;SDS011;7538;53.626;9.906;2023-03-05T08:56:14;1.83;;;1.25;;
14892;SDS011;7538;53.626;9.906;2023-03-05T08:58:40;4.90;;;1.50;;
14892;SDS011;7538;53.626;9.906;2023-03-05T09:01:08;4.03;;;1.60;;
14892;SDS011;7538;53.626;9.906;2023-03-05T09:03:34;3.20;;;1.63;;
14892;SDS011;7538;53.626;9.906;2023-03-05T09:06:02;2.58;;;1.30;;
14892;SDS011;7538;53.626;9.906;2023-03-05T09:08:31;4.63;;;1.85;;
14892;SDS011;7538;53.626;9.906;2023-03-05T09:11:00;3.33;;;1.20;;
14892;SDS011;7538;53.626;9.906;2023-03-05T09:13:29;4.57;;;1.30;;
14892;SDS011;7538;53.626;9.906;2023-03-05T09:15:56;5.45;;;1.50;;
14892;SDS011;7538;53.626;9.906;2023-03-05T09:18:23;6.38;;;2.00;;
14892;SDS011;7538;53.626;9.906;2023-03-05T09:20:51;3.38;;;1.42;;
14892;SDS011;7538;53.626;9.906;2023-03-05T09:23:18;4.32;;;1.67;;
14892;SDS011;7538;53.626;9.906;2023-03-05T09:25:44;3.95;;;1.80;;
14892;SDS011;7538;53.626;9.906;2023-03-05T09:28:11;5.05;;;1.80;;
14892;SDS011;7538;53.626;9.906;2023-03-05T09:30:40;4.65;;;1.20;;
14892;SDS011;7538;53.626;9.906;2023-03-05T09:33:07;4.45;;;1.60;;
14892;SDS011;7538;53.626;9.906;2023-03-05T09:35:34;6.53;;;1.30;;
14892;SDS011;7538;53.626;9.906;2023-03-05T09:38:01;3.78;;;1.50;;
14892;SDS011;7538;53.626;9.906;2023-03-05T09:40:29;3.63;;;1.67;;
14892;SDS011;7538;53.626;9.906;2023-03-05T09:43:04;7.13;;;2.00;;
14892;SDS011;7538;53.626;9.906;2023-03-05T09:45:46;5.47;;;1.57;;
14892;SDS011;7538;53.626;9.906;2023-03-05T09:48:25;4.27;;;1.77;;
14892;SDS011;7538;53.626;9.906;2023-03-05T09:51:04;6.60;;;2.30;;
14892;SDS011;7538;53.626;9.906;2023-03-05T09:53:36;5.57;;;2.00;;
14892;SDS011;7538;53.626;9.906;2023-03-05T09:56:09;3.50;;;1.27;;
14892;SDS011;7538;53.626;9.906;2023-03-05T09:58:38;3.47;;;1.53;;
14892;SDS011;7538;53.626;9.906;2023-03-05T10:01:08;4.80;;;1.57;;
14892;SDS011;7538;53.626;9.906;2023-03-05T10:03:42;4.60;;;1.50;;
14892;SDS011;7538;53.626;9.906;2023-03-05T10:06:16;4.33;;;1.50;;
14892;SDS011;7538;53.626;9.906;2023-03-05T10:08:50;5.27;;;1.43;;
14892;SDS011;7538;53.626;9.906;2023-03-05T10:11:29;5.33;;;1.30;;
14892;SDS011;7538;53.626;9.906;2023-03-05T10:14:03;5.17;;;1.77;;
14892;SDS011;7538;53.626;9.906;2023-03-05T10:16:42;4.10;;;1.90;;
14892;SDS011;7538;53.626;9.906;2023-03-05T10:19:40;5.57;;;1.30;;
14892;SDS011;7538;53.626;9.906;2023-03-05T10:22:29;3.00;;;1.27;;
14892;SDS011;7538;53.626;9.906;2023-03-05T10:25:09;3.30;;;1.40;;
14892;SDS011;7538;53.626;9.906;2023-03-05T10:27:45;6.90;;;2.03;;
14892;SDS011;7538;53.626;9.906;2023-03-05T10:30:35;2.33;;;1.23;;
14892;SDS011;7538;53.626;9.906;2023-03-05T10:33:21;6.50;;;1.80;;
14892;SDS011;7538;53.626;9.906;2023-03-05T10:36:04;4.40;;;1.70;;
14892;SDS011;7538;53.626;9.906;2023-03-05T10:38:44;2.90;;;1.20;;
14892;SDS011;7538;53.626;9.906;2023-03-05T10:41:25;5.73;;;1.87;;
14892;SDS011;7538;53.626;9.906;2023-03-05T10:43:57;2.50;;;1.33;;
14892;SDS011;7538;53.626;9.906;2023-03-05T10:46:31;3.50;;;1.20;;
14892;SDS011;7538;53.626;9.906;2023-03-05T10:49:06;4.47;;;1.83;;
14892;SDS011;7538;53.626;9.906;2023-03-05T10:51:43;5.23;;;1.50;;
14892;SDS011;7538;53.626;9.906;2023-03-05T10:54:17;6.10;;;2.00;;
14892;SDS011;7538;53.626;9.906;2023-03-05T10:56:49;4.30;;;1.50;;
14892;SDS011;7538;53.626;9.906;2023-03-05T10:59:16;3.23;;;1.70;;
14892;SDS011;7538;53.626;9.906;2023-03-05T11:01:43;2.00;;;1.00;;
14892;SDS011;7538;53.626;9.906;2023-03-05T11:04:29;4.50;;;1.40;;
14892;SDS011;7538;53.626;9.906;2023-03-05T11:07:04;6.07;;;1.10;;
14892;SDS011;7538;53.626;9.906;2023-03-05T11:09:33;2.50;;;1.30;;
14892;SDS011;7538;53.626;9.906;2023-03-05T11:12:11;3.57;;;1.00;;
14892;SDS011;7538;53.626;9.906;2023-03-05T11:14:40;2.97;;;1.03;;
14892;SDS011;7538;53.626;9.906;2023-03-05T11:17:22;2.73;;;1.20;;
14892;SDS011;7538;53.626;9.906;2023-03-05T11:19:56;3.07;;;1.10;;
14892;SDS011;7538;53.626;9.906;2023-03-05T11:22:31;2.70;;;1.13;;
14892;SDS011;7538;53.626;9.906;2023-03-05T11:25:04;2.47;;;0.90;;
14892;SDS011;7538;53.626;9.906;2023-03-05T11:27:41;1.67;;;1.20;;
14892;SDS011;7538;53.626;9.906;2023-03-05T11:30:17;4.87;;;1.40;;
14892;SDS011;7538;53.626;9.906;2023-03-05T11:32:46;1.60;;;1.20;;
14892;SDS011;7538;53.626;9.906;2023-03-05T11:35:25;3.63;;;1.77;;
14892;SDS011;7538;53.626;9.906;2023-03-05T11:38:00;3.33;;;1.40;;
14892;SDS011;7538;53.626;9.906;2023-03-05T11:40:28;3.63;;;1.70;;
14892;SDS011;7538;53.626;9.906;2023-03-05T11:42:59;2.60;;;1.40;;
14892;SDS011;7538;53.626;9.906;2023-03-05T11:45:28;5.77;;;1.60;;
14892;SDS011;7538;53.626;9.906;2023-03-05T11:47:57;5.03;;;1.53;;
14892;SDS011;7538;53.626;9.906;2023-03-05T11:50:31;1.83;;;1.30;;
14892;SDS011;7538;53.626;9.906;2023-03-05T11:53:01;2.00;;;1.10;;
14892;SDS011;7538;53.626;9.906;2023-03-05T11:55:31;1.73;;;1.00;;
14892;SDS011;7538;53.626;9.906;2023-03-05T11:58:06;1.87;;;0.90;;
14892;SDS011;7538;53.626;9.906;2023-03-05T12:00:45;3.63;;;1.33;;
14892;SDS011;7538;53.626;9.906;2023-03-05T12:03:13;2.37;;;1.00;;
14892;SDS011;7538;53.626;9.906;2023-03-05T12:05:44;3.77;;;1.20;;
14892;SDS011;7538;53.626;9.906;2023-03-05T12:08:14;5.13;;;1.30;;
14892;SDS011;7538;53.626;9.906;2023-03-05T12:10:47;3.17;;;0.90;;
14892;SDS011;7538;53.626;9.906;2023-03-05T12:13:14;1.03;;;0.60;;
14892;SDS011;7538;53.626;9.906;2023-03-05T12:15:59;2.63;;;0.80;;
14892;SDS011;7538;53.626;9.906;2023-03-05T12:18:36;1.40;;;0.97;;
14892;SDS011;7538;53.626;9.906;2023-03-05T12:21:15;5.93;;;1.10;;
14892;SDS011;7538;53.626;9.906;2023-03-05T12:23:53;3.33;;;1.17;;
14892;SDS011;7538;53.626;9.906;2023-03-05T12:29:29;5.07;;;1.50;;
14892;SDS011;7538;53.626;9.906;2023-03-05T12:32:03;1.60;;;0.90;;
14892;SDS011;7538;53.626;9.906;2023-03-05T12:34:44;1.47;;;0.60;;
14892;SDS011;7538;53.626;9.906;2023-03-05T12:37:15;2.90;;;1.03;;
14892;SDS011;7538;53.626;9.906;2023-03-05T12:40:21;3.10;;;1.30;;
14892;SDS011;7538;53.626;9.906;2023-03-05T12:42:53;3.07;;;0.80;;
14892;SDS011;7538;53.626;9.906;2023-03-05T12:45:25;2.90;;;1.50;;
14892;SDS011;7538;53.626;9.906;2023-03-05T12:54:23;3.30;;;1.27;;
14892;SDS011;7538;53.626;9.906;2023-03-05T12:56:56;1.90;;;1.20;;
14892;SDS011;7538;53.626;9.906;2023-03-05T12:59:27;2.30;;;0.90;;
14892;SDS011;7538;53.626;9.906;2023-03-05T13:02:12;3.43;;;0.97;;
14892;SDS011;7538;53.626;9.906;2023-03-05T13:04:45;3.50;;;1.23;;
14892;SDS011;7538;53.626;9.906;2023-03-05T13:07:13;4.27;;;1.00;;
14892;SDS011;7538;53.626;9.906;2023-03-05T13:09:51;5.17;;;1.30;;
14892;SDS011;7538;53.626;9.906;2023-03-05T13:12:19;1.17;;;0.80;;
14892;SDS011;7538;53.626;9.906;2023-03-05T13:14:47;3.00;;;1.00;;
14892;SDS011;7538;53.626;9.906;2023-03-05T13:17:28;3.67;;;1.10;;
14892;SDS011;7538;53.626;9.906;2023-03-05T13:20:25;3.03;;;1.40;;
14892;SDS011;7538;53.626;9.906;2023-03-05T13:23:02;5.20;;;1.30;;
14892;SDS011;7538;53.626;9.906;2023-03-05T13:25:31;2.83;;;1.00;;
14892;SDS011;7538;53.626;9.906;2023-03-05T13:28:01;2.20;;;0.77;;
14892;SDS011;7538;53.626;9.906;2023-03-05T13:30:28;1.63;;;0.70;;
14892;SDS011;7538;53.626;9.906;2023-03-05T13:32:56;3.07;;;1.30;;
14892;SDS011;7538;53.626;9.906;2023-03-05T13:35:27;3.80;;;1.07;;
14892;SDS011;7538;53.626;9.906;2023-03-05T13:37:53;2.23;;;0.80;;
14892;SDS011;7538;53.626;9.906;2023-03-05T13:40:22;4.40;;;1.10;;
14892;SDS011;7538;53.626;9.906;2023-03-05T13:42:51;3.30;;;1.30;;
14892;SDS011;7538;53.626;9.906;2023-03-05T13:45:20;3.53;;;1.03;;
14892;SDS011;7538;53.626;9.906;2023-03-05T13:47:53;2.73;;;0.80;;
14892;SDS011;7538;53.626;9.906;2023-03-05T13:50:22;2.83;;;0.97;;
14892;SDS011;7538;53.626;9.906;2023-03-05T13:52:53;2.77;;;1.57;;
14892;SDS011;7538;53.626;9.906;2023-03-05T13:55:20;3.13;;;0.97;;
14892;SDS011;7538;53.626;9.906;2023-03-05T13:57:48;2.80;;;0.90;;
14892;SDS011;7538;53.626;9.906;2023-03-05T14:00:32;3.63;;;1.17;;
14892;SDS011;7538;53.626;9.906;2023-03-05T14:03:06;4.33;;;1.30;;
14892;SDS011;7538;53.626;9.906;2023-03-05T14:05:34;2.33;;;1.20;;
14892;SDS011;7538;53.626;9.906;2023-03-05T14:08:02;3.53;;;1.10;;
14892;SDS011;7538;53.626;9.906;2023-03-05T14:10:30;4.83;;;1.80;;
14892;SDS011;7538;53.626;9.906;2023-03-05T14:13:00;4.33;;;1.30;;
14892;SDS011;7538;53.626;9.906;2023-03-05T14:15:31;5.43;;;1.90;;
14892;SDS011;7538;53.626;9.906;2023-03-05T14:18:06;2.40;;;1.10;;
14892;SDS011;7538;53.626;9.906;2023-03-05T14:20:57;3.07;;;1.00;;
14892;SDS011;7538;53.626;9.906;2023-03-05T14:23:36;3.57;;;1.20;;
14892;SDS011;7538;53.626;9.906;2023-03-05T14:26:15;2.80;;;1.17;;
14892;SDS011;7538;53.626;9.906;2023-03-05T14:28:51;3.87;;;1.07;;
14892;SDS011;7538;53.626;9.906;2023-03-05T14:31:22;2.07;;;0.77;;
14892;SDS011;7538;53.626;9.906;2023-03-05T14:33:49;3.53;;;1.10;;
14892;SDS011;7538;53.626;9.906;2023-03-05T14:36:24;4.37;;;1.40;;
14892;SDS011;7538;53.626;9.906;2023-03-05T14:38:53;4.77;;;1.20;;
14892;SDS011;7538;53.626;9.906;2023-03-05T14:41:21;6.27;;;1.50;;
14892;SDS011;7538;53.626;9.906;2023-03-05T14:43:59;4.47;;;1.17;;
14892;SDS011;7538;53.626;9.906;2023-03-05T14:46:28;2.03;;;1.10;;
14892;SDS011;7538;53.626;9.906;2023-03-05T14:48:54;1.83;;;1.00;;
14892;SDS011;7538;53.626;9.906;2023-03-05T14:51:21;2.50;;;1.00;;
14892;SDS011;7538;53.626;9.906;2023-03-05T14:53:50;4.40;;;1.40;;
14892;SDS011;7538;53.626;9.906;2023-03-05T14:56:17;2.13;;;0.87;;
14892;SDS011;7538;53.626;9.906;2023-03-05T14:58:48;4.53;;;1.50;;
14892;SDS011;7538;53.626;9.906;2023-03-05T15:01:15;2.60;;;0.90;;
14892;SDS011;7538;53.626;9.906;2023-03-05T15:03:44;3.23;;;1.10;;
14892;SDS011;7538;53.626;9.906;2023-03-05T15:06:15;3.63;;;1.23;;
14892;SDS011;7538;53.626;9.906;2023-03-05T15:08:45;3.67;;;1.20;;
14892;SDS011;7538;53.626;9.906;2023-03-05T15:11:11;6.90;;;1.80;;
14892;SDS011;7538;53.626;9.906;2023-03-05T15:13:38;3.50;;;1.60;;
14892;SDS011;7538;53.626;9.906;2023-03-05T15:16:05;9.37;;;3.77;;
14892;SDS011;7538;53.626;9.906;2023-03-05T15:18:33;3.80;;;1.77;;
14892;SDS011;7538;53.626;9.906;2023-03-05T15:21:01;4.93;;;2.20;;
14892;SDS011;7538;53.626;9.906;2023-03-05T15:23:28;3.07;;;1.40;;
14892;SDS011;7538;53.626;9.906;2023-03-05T15:26:00;3.70;;;1.20;;
14892;SDS011;7538;53.626;9.906;2023-03-05T15:28:30;4.40;;;1.40;;